Time;durP1;ratioP1;P1;durP2;ratioP2;P2;SDS_P1;SDS_P2;PMS_P1;PMS_P2;Temp;Humidity;BMP_temperature;BMP_pressure;BME280_temperature;BME280_humidity;BME280_pressure;Samples;Min_cycle;Max_cycle;Signal;HPM_P1;HPM_P2
2023/05/26 00:00:51;;;;;;;30.15;4.32;;;;;;;-146.27;83.76;83479.13;5048706;28;20036;-72
2023/05/26 00:03:17;;;;;;;25.20;4.35;;;;;;;-146.27;83.11;83444.97;5043893;28;20074;-72
2023/05/26 00:05:43;;;;;;;25.60;4.57;;;;;;;-146.27;83.61;83491.19;5036013;28;20028;-72
2023/05/26 00:08:09;;;;;;;24.45;4.25;;;;;;;-146.27;84.18;83517.31;5044542;28;20033;-72
2023/05/26 00:10:35;;;;;;;26.25;4.70;;;;;;;-146.27;84.78;83505.25;5048933;28;20052;-72
2023/05/26 00:13:00;;;;;;;20.63;3.83;;;;;;;-146.27;83.45;83517.31;5035533;28;20045;-71
2023/05/26 00:15:25;;;;;;;24.17;6.20;;;;;;;-146.27;84.23;83501.22;5049487;28;20090;-71
2023/05/26 00:17:51;;;;;;;29.55;4.47;;;;;;;-146.27;84.74;83501.22;5048631;28;20055;-72
2023/05/26 00:20:16;;;;;;;29.45;4.53;;;;;;;-146.27;83.77;83501.22;5048349;28;20032;-72
2023/05/26 00:22:42;;;;;;;31.55;4.40;;;;;;;-146.27;84.58;83503.25;5046101;28;20036;-72
2023/05/26 00:25:08;;;;;;;20.45;3.53;;;;;;;-146.27;84.55;83521.34;5034661;28;20025;-72
2023/05/26 00:27:33;;;;;;;26.42;4.38;;;;;;;-146.27;84.89;83491.19;5048070;28;20052;-72
2023/05/26 00:29:59;;;;;;;24.58;4.50;;;;;;;-146.27;84.04;83497.22;5043361;28;20026;-72
2023/05/26 00:32:25;;;;;;;29.42;4.75;;;;;;;-146.27;85.22;83485.16;5041768;28;20527;-72
2023/05/26 00:34:51;;;;;;;35.00;4.47;;;;;;;-146.27;83.99;83497.22;5047112;28;20036;-72
2023/05/26 00:37:16;;;;;;;22.42;5.35;;;;;;;-146.27;84.82;83497.22;5043972;28;20393;-72
2023/05/26 00:39:41;;;;;;;21.27;4.50;;;;;;;-146.27;84.45;83489.19;5030801;28;20090;-73
2023/05/26 00:42:07;;;;;;;18.98;3.30;;;;;;;-146.27;84.77;83477.13;5035204;28;20028;-72
2023/05/26 00:44:32;;;;;;;26.10;4.85;;;;;;;-146.27;82.98;83497.22;5040497;28;20029;-71
2023/05/26 00:46:58;;;;;;;31.63;4.40;;;;;;;-146.27;84.38;83467.06;5042260;28;20576;-72
2023/05/26 00:49:23;;;;;;;37.22;5.60;;;;;;;-146.27;84.11;83449.00;5033213;28;20392;-71
2023/05/26 00:51:49;;;;;;;30.20;3.88;;;;;;;-146.27;84.21;83430.91;5033040;28;20032;-71
2023/05/26 00:54:15;;;;;;;22.25;3.28;;;;;;;-146.27;83.45;83465.06;5044160;28;20472;-72
2023/05/26 00:56:42;;;;;;;21.38;4.35;;;;;;;-146.27;83.63;83467.06;5049885;28;20041;-72
2023/05/26 00:59:11;;;;;;;18.40;4.20;;;;;;;-146.27;83.00;83485.16;5049476;28;20017;-72
2023/05/26 01:01:37;;;;;;;26.23;4.93;;;;;;;-146.27;83.51;83467.06;5041191;28;20030;-71
2023/05/26 01:04:02;;;;;;;28.38;5.72;;;;;;;-146.27;83.22;83525.34;5050229;28;20503;-71
2023/05/26 01:06:28;;;;;;;31.35;4.18;;;;;;;-146.27;83.42;83481.16;5050181;28;20021;-72
2023/05/26 01:08:53;;;;;;;25.80;4.85;;;;;;;-146.27;82.93;83479.13;5049583;28;20396;-72
2023/05/26 01:11:31;;;;;;;32.08;4.38;;;;;;;-146.27;82.42;83451.00;5041818;28;20123;-72
2023/05/26 01:14:20;;;;;;;22.63;3.65;;;;;;;-146.27;82.46;83533.38;5045221;28;20213;-72
2023/05/26 01:17:01;;;;;;;22.30;4.43;;;;;;;-146.27;82.24;83533.38;5039546;28;20178;-72
2023/05/26 01:19:50;;;;;;;29.90;3.60;;;;;;;-146.27;81.78;83525.34;5045399;28;20017;-71
2023/05/26 01:22:45;;;;;;;28.40;4.82;;;;;;;-146.27;82.16;83499.22;5045253;28;20460;-73
2023/05/26 01:25:17;;;;;;;30.13;3.88;;;;;;;-146.27;81.91;83513.28;5036153;28;20122;-71
2023/05/26 01:28:16;;;;;;;24.98;3.55;;;;;;;-146.27;82.22;83501.22;5053156;28;20575;-71
2023/05/26 01:30:43;;;;;;;16.67;3.60;;;;;;;-146.27;81.82;83517.31;5041482;28;20485;-71
2023/05/26 01:33:08;;;;;;;31.65;4.60;;;;;;;-146.27;82.74;83531.38;5045404;28;20035;-72
2023/05/26 01:35:34;;;;;;;27.25;3.85;;;;;;;-146.27;82.25;83507.25;5050404;28;20469;-71
2023/05/26 01:38:00;;;;;;;20.95;3.85;;;;;;;-146.27;82.54;83535.41;5058307;28;20450;-71
2023/05/26 01:40:27;;;;;;;24.92;3.22;;;;;;;-146.27;82.38;83553.47;5044113;28;20187;-72
2023/05/26 01:43:02;;;;;;;19.58;3.20;;;;;;;-146.27;81.65;83501.22;5045777;28;20182;-72
2023/05/26 01:45:35;;;;;;;21.02;3.53;;;;;;;-146.27;82.08;83505.25;5044156;28;20423;-72
2023/05/26 01:48:02;;;;;;;27.50;4.72;;;;;;;-146.27;82.62;83541.41;5049921;28;20021;-72
2023/05/26 01:51:00;;;;;;;23.33;3.35;;;;;;;-146.27;82.14;83457.03;5037169;28;20118;-72
2023/05/26 01:53:32;;;;;;;28.10;4.18;;;;;;;-146.27;81.63;83517.31;5046820;28;20501;-72
2023/05/26 01:55:59;;;;;;;24.17;3.63;;;;;;;-146.27;81.88;83531.38;5038091;28;20108;-72
2023/05/26 01:58:28;;;;;;;23.63;4.15;;;;;;;-146.27;82.38;83557.50;5053069;28;20417;-71
2023/05/26 02:00:54;;;;;;;23.98;3.75;;;;;;;-146.27;81.96;83551.47;5050966;28;20044;-71
2023/05/26 02:03:21;;;;;;;20.17;3.95;;;;;;;-146.27;82.96;83559.50;5046291;28;20036;-71
2023/05/26 02:05:47;;;;;;;21.08;4.13;;;;;;;-146.27;82.52;83563.53;5052825;28;20484;-72
2023/05/26 02:08:12;;;;;;;24.42;4.68;;;;;;;-146.27;83.71;83617.78;5051349;28;20131;-70
2023/05/26 02:10:39;;;;;;;20.98;4.10;;;;;;;-146.27;83.62;83625.81;5051158;28;20033;-72
2023/05/26 02:13:05;;;;;;;27.25;4.18;;;;;;;-146.27;84.57;83633.84;5044689;28;20420;-72
2023/05/26 02:15:31;;;;;;;27.70;4.78;;;;;;;-146.27;83.96;83615.78;5050123;28;20055;-71
2023/05/26 02:17:57;;;;;;;31.83;4.78;;;;;;;-146.27;85.52;83655.97;5036694;28;20025;-72
2023/05/26 02:20:23;;;;;;;24.60;3.83;;;;;;;-146.27;84.76;83653.94;5036782;28;20028;-72
2023/05/26 02:22:49;;;;;;;22.02;4.00;;;;;;;-146.27;85.37;83647.91;5038482;28;20036;-72
2023/05/26 02:25:15;;;;;;;25.23;3.70;;;;;;;-146.27;85.17;83666.00;5035193;28;20029;-72
2023/05/26 02:27:41;;;;;;;20.20;4.25;;;;;;;-146.27;86.08;83690.13;5031768;28;20105;-71
2023/05/26 02:30:06;;;;;;;29.35;4.28;;;;;;;-146.27;86.54;83631.84;5032544;28;20025;-71
2023/05/26 02:32:32;;;;;;;28.00;4.13;;;;;;;-146.27;85.10;83629.84;5035358;28;20021;-72
2023/05/26 02:34:58;;;;;;;16.27;3.90;;;;;;;-146.27;85.21;83670.03;5051730;28;20417;-72
2023/05/26 02:37:26;;;;;;;27.50;3.65;;;;;;;-146.27;85.38;83649.94;5050617;28;20061;-72
2023/05/26 02:39:52;;;;;;;29.80;4.70;;;;;;;-146.27;86.83;83585.63;5040417;28;20507;-71
2023/05/26 02:42:17;;;;;;;23.08;4.05;;;;;;;-146.27;86.58;83674.03;5044870;28;20029;-71
2023/05/26 02:44:42;;;;;;;17.83;3.67;;;;;;;-146.27;85.32;83629.84;5035549;28;20485;-72
2023/05/26 02:47:08;;;;;;;19.15;4.18;;;;;;;-146.27;85.59;83629.84;5046756;28;20064;-71
2023/05/26 02:49:34;;;;;;;16.33;3.80;;;;;;;-146.27;86.28;83666.00;5051387;28;20477;-71
2023/05/26 02:51:59;;;;;;;19.50;4.00;;;;;;;-146.27;87.10;83633.84;5038876;28;20029;-72
2023/05/26 02:54:24;;;;;;;18.05;4.15;;;;;;;-146.27;85.79;83645.91;5047587;28;20040;-72
2023/05/26 02:56:50;;;;;;;28.40;4.10;;;;;;;-146.27;86.34;83672.03;5034696;28;20029;-72
2023/05/26 02:59:15;;;;;;;18.30;3.70;;;;;;;-146.27;86.68;83670.03;5032309;28;20018;-72
2023/05/26 03:01:40;;;;;;;22.88;4.13;;;;;;;-146.27;86.97;83649.94;5047818;28;20029;-71
2023/05/26 03:04:06;;;;;;;27.38;4.28;;;;;;;-146.27;86.88;83653.94;5032202;28;20030;-72
2023/05/26 03:06:32;;;;;;;28.92;3.65;;;;;;;-146.27;86.67;83615.78;5031381;28;20041;-72
2023/05/26 03:08:57;;;;;;;34.20;4.75;;;;;;;-146.27;87.82;83680.06;5048697;28;20017;-72
2023/05/26 03:11:23;;;;;;;23.77;3.83;;;;;;;-146.27;87.62;83643.91;5036988;28;20357;-72
2023/05/26 03:13:48;;;;;;;30.80;4.20;;;;;;;-146.27;86.65;83651.94;5043049;28;20033;-72
2023/05/26 03:16:14;;;;;;;31.98;4.20;;;;;;;-146.27;87.99;83645.91;5049937;28;20473;-72
2023/05/26 03:18:39;;;;;;;12.90;3.00;;;;;;;-146.27;87.17;83653.94;5033452;28;20033;-72
2023/05/26 03:21:06;;;;;;;19.58;3.90;;;;;;;-146.27;85.38;83670.03;5043792;28;20059;-73
2023/05/26 03:23:32;;;;;;;26.75;3.60;;;;;;;-146.27;86.70;83649.94;5048869;28;20112;-72
2023/05/26 03:25:57;;;;;;;21.27;3.70;;;;;;;-146.27;88.20;83678.06;5039694;28;20105;-72
2023/05/26 03:28:22;;;;;;;30.02;4.22;;;;;;;-146.27;87.52;83682.09;5043995;28;20120;-72
2023/05/26 03:30:48;;;;;;;27.08;3.97;;;;;;;-146.27;87.31;83597.69;5050810;28;20028;-72
2023/05/26 03:33:13;;;;;;;22.83;3.97;;;;;;;-146.27;86.99;83682.09;5047559;28;20102;-72
2023/05/26 03:35:38;;;;;;;27.50;4.80;;;;;;;-146.27;87.36;83664.00;5065211;28;20028;-72
2023/05/26 03:38:04;;;;;;;22.35;3.92;;;;;;;-146.27;87.80;83698.16;5037587;28;20058;-72
2023/05/26 03:40:29;;;;;;;23.55;3.78;;;;;;;-146.27;87.74;83678.06;5049633;28;20037;-72
2023/05/26 03:42:54;;;;;;;19.88;3.65;;;;;;;-146.27;88.01;83688.09;5034106;28;20164;-71
2023/05/26 03:45:20;;;;;;;27.08;4.38;;;;;;;-146.27;88.27;83694.13;5044618;28;20068;-72
2023/05/26 03:47:45;;;;;;;23.15;3.42;;;;;;;-146.27;87.64;83678.06;5058679;28;20029;-71
2023/05/26 03:50:10;;;;;;;24.50;4.15;;;;;;;-146.27;88.33;83696.16;5049929;28;20021;-72
2023/05/26 03:52:36;;;;;;;24.25;4.07;;;;;;;-146.27;88.38;83678.06;5035894;28;20028;-71
2023/05/26 03:55:01;;;;;;;21.25;3.67;;;;;;;-146.27;87.80;83621.81;5048214;28;20049;-72
2023/05/26 03:57:27;;;;;;;23.20;3.55;;;;;;;-146.27;88.44;83617.78;5034015;28;20449;-72
2023/05/26 03:59:52;;;;;;;25.00;4.55;;;;;;;-146.27;88.67;83662.00;5049379;28;20562;-72
2023/05/26 04:02:19;;;;;;;16.73;3.65;;;;;;;-146.27;88.00;83662.00;5045233;28;20028;-71
2023/05/26 04:04:44;;;;;;;23.55;4.30;;;;;;;-146.27;88.88;83645.91;5049697;28;20029;-71
2023/05/26 04:07:10;;;;;;;20.60;5.78;;;;;;;-146.27;88.02;83664.00;5039645;28;20496;-72
2023/05/26 04:09:35;;;;;;;24.02;4.38;;;;;;;-146.27;90.61;83595.69;5031094;28;20028;-72
2023/05/26 04:12:01;;;;;;;24.17;4.00;;;;;;;-146.27;89.32;83668.00;5031495;28;20049;-72
2023/05/26 04:14:26;;;;;;;26.15;5.10;;;;;;;-146.27;88.86;83637.88;5030986;28;20065;-72
2023/05/26 04:16:52;;;;;;;28.20;4.32;;;;;;;-146.27;88.66;83623.81;5049694;28;20116;-72
2023/05/26 04:19:18;;;;;;;22.15;4.47;;;;;;;-146.27;88.56;83613.75;5045730;28;20078;-73
2023/05/26 04:21:43;;;;;;;23.27;3.95;;;;;;;-146.27;88.64;83672.03;5045593;28;20036;-73
2023/05/26 04:24:08;;;;;;;24.35;4.05;;;;;;;-146.27;88.86;83601.72;5036482;28;20654;-72
2023/05/26 04:26:34;;;;;;;28.48;4.57;;;;;;;-146.27;88.56;83649.94;5038795;28;20108;-72
2023/05/26 04:29:02;;;;;;;27.35;4.32;;;;;;;-146.27;88.54;83682.09;5037418;28;20677;-72
2023/05/26 04:31:31;;;;;;;29.20;5.13;;;;;;;-146.27;89.37;83625.81;5039666;28;20017;-72
2023/05/26 04:33:57;;;;;;;26.05;4.45;;;;;;;-146.27;88.24;83585.63;5035092;28;20035;-72
2023/05/26 04:36:23;;;;;;;27.65;4.13;;;;;;;-146.27;87.95;83597.69;5030787;28;20033;-72
2023/05/26 04:38:49;;;;;;;29.15;4.72;;;;;;;-146.27;88.55;83569.56;5048237;28;20485;-72
2023/05/26 04:41:15;;;;;;;26.95;3.95;;;;;;;-146.27;88.78;83573.56;5046624;28;20040;-72
2023/05/26 04:43:43;;;;;;;21.67;4.40;;;;;;;-146.27;87.66;83525.34;5043070;28;20105;-72
2023/05/26 04:46:11;;;;;;;21.17;4.45;;;;;;;-146.27;87.81;83509.28;5047628;28;20036;-72
2023/05/26 04:48:37;;;;;;;31.55;4.80;;;;;;;-146.27;87.87;83557.50;5036082;28;20458;-72
2023/05/26 04:51:05;;;;;;;23.08;3.90;;;;;;;-146.27;87.87;83553.47;5040473;28;20065;-72
2023/05/26 04:53:31;;;;;;;18.35;4.40;;;;;;;-146.27;87.87;83535.41;5039347;28;20025;-72
2023/05/26 04:56:00;;;;;;;17.20;3.85;;;;;;;-146.27;87.75;83561.53;5031939;28;20028;-68
2023/05/26 04:58:25;;;;;;;26.08;4.57;;;;;;;-146.27;87.77;83513.28;5037023;28;20028;-67
2023/05/26 05:00:51;;;;;;;29.35;3.75;;;;;;;-146.27;87.79;83541.41;5032672;28;20116;-69
2023/05/26 05:03:16;;;;;;;22.98;5.07;;;;;;;-146.27;86.67;83477.13;5042951;28;20405;-68
2023/05/26 05:05:41;;;;;;;22.38;4.22;;;;;;;-146.27;85.72;83511.28;5034607;28;20080;-67
2023/05/26 05:08:07;;;;;;;28.58;5.97;;;;;;;-146.27;85.57;83479.13;5040361;28;20037;-68
2023/05/26 05:10:32;;;;;;;25.63;4.97;;;;;;;-146.27;85.32;83505.25;5040766;28;20025;-68
2023/05/26 05:12:59;;;;;;;32.55;4.95;;;;;;;-146.27;84.30;83485.16;5050255;28;20059;-69
2023/05/26 05:15:24;;;;;;;22.85;4.43;;;;;;;-146.27;84.27;83461.06;5042745;28;20347;-69
2023/05/26 05:17:49;;;;;;;23.58;4.13;;;;;;;-146.27;84.05;83493.19;5047408;28;20465;-70
2023/05/26 05:20:15;;;;;;;28.00;4.60;;;;;;;-146.27;83.75;83461.06;5050878;28;20031;-68
2023/05/26 05:22:41;;;;;;;29.33;5.00;;;;;;;-146.27;83.49;83461.06;5046520;28;20477;-68
2023/05/26 05:25:06;;;;;;;26.92;5.25;;;;;;;-146.27;83.16;83497.22;5051769;28;20036;-69
2023/05/26 05:27:32;;;;;;;31.05;4.72;;;;;;;-146.27;83.91;83449.00;5046965;28;20029;-67
2023/05/26 05:29:57;;;;;;;24.42;4.25;;;;;;;-146.27;82.28;83430.91;5046955;28;20025;-67
2023/05/26 05:32:22;;;;;;;30.48;6.55;;;;;;;-146.27;81.87;83438.94;5055530;28;20449;-67
2023/05/26 05:34:48;;;;;;;25.20;4.25;;;;;;;-146.27;82.66;83442.97;5063298;28;20389;-70
2023/05/26 05:37:13;;;;;;;27.00;4.72;;;;;;;-146.27;82.04;83473.09;5044561;28;20564;-70
2023/05/26 05:39:39;;;;;;;28.63;5.35;;;;;;;-146.27;82.06;83412.81;5067290;28;20044;-73
2023/05/26 05:42:04;;;;;;;20.35;4.75;;;;;;;-146.27;81.22;83420.88;5065522;28;20480;-70
2023/05/26 05:44:30;;;;;;;28.13;4.18;;;;;;;-146.27;81.26;83428.91;5045907;28;20036;-69
2023/05/26 05:46:55;;;;;;;24.45;3.90;;;;;;;-146.27;81.32;83424.88;5047275;28;20032;-70
2023/05/26 05:49:20;;;;;;;21.58;5.60;;;;;;;-146.27;81.20;83416.84;5057001;28;20365;-71
2023/05/26 05:51:46;;;;;;;27.73;5.53;;;;;;;-146.27;80.19;83412.81;5062125;28;20024;-70
2023/05/26 05:54:11;;;;;;;33.72;4.40;;;;;;;-146.27;79.98;83368.63;5044414;28;20040;-71
2023/05/26 05:56:36;;;;;;;23.75;4.15;;;;;;;-146.27;79.36;83356.56;5045676;28;20032;-70
2023/05/26 05:59:02;;;;;;;32.60;4.82;;;;;;;-146.27;80.14;83364.59;5051389;28;20450;-72
2023/05/26 06:01:27;;;;;;;26.25;5.65;;;;;;;-146.27;79.40;83372.63;5034385;28;20429;-71
2023/05/26 06:03:53;;;;;;;22.60;3.88;;;;;;;-146.27;79.34;83316.38;5046982;28;20032;-69
2023/05/26 06:06:18;;;;;;;29.13;4.70;;;;;;;-146.27;79.29;83342.50;5052861;28;20033;-71
2023/05/26 06:08:43;;;;;;;23.10;3.72;;;;;;;-146.27;78.92;83328.44;5051554;28;20025;-71
2023/05/26 06:11:10;;;;;;;24.88;5.00;;;;;;;-146.27;77.59;83338.47;5052634;28;20110;-72
2023/05/26 06:13:36;;;;;;;22.90;3.80;;;;;;;-146.27;77.80;83324.41;5053051;28;20269;-73
2023/05/26 06:16:01;;;;;;;22.63;4.28;;;;;;;-146.27;77.34;83308.34;5053071;28;20037;-71
2023/05/26 06:18:27;;;;;;;20.73;4.05;;;;;;;-146.27;77.48;83316.38;5034992;28;20013;-72
2023/05/26 06:20:52;;;;;;;20.27;5.07;;;;;;;-146.27;77.30;83274.19;5058604;28;20030;-70
2023/05/26 06:23:17;;;;;;;23.67;4.05;;;;;;;-146.27;76.44;83302.31;5051701;28;20029;-69
2023/05/26 06:25:43;;;;;;;32.70;5.00;;;;;;;-146.27;76.07;83282.22;5048185;28;20028;-69
2023/05/26 06:28:09;;;;;;;24.58;4.13;;;;;;;-146.27;75.73;83356.56;5060718;28;20528;-68
2023/05/26 06:30:34;;;;;;;22.25;4.55;;;;;;;-146.27;76.55;83268.16;5049387;28;20163;-70
2023/05/26 06:33:00;;;;;;;23.60;4.20;;;;;;;-146.27;78.11;83223.94;5044830;28;20452;-71
2023/05/26 06:35:25;;;;;;;23.67;3.65;;;;;;;-146.27;76.06;83240.03;5046393;28;20393;-71
2023/05/26 06:37:50;;;;;;;24.00;5.20;;;;;;;-146.27;75.57;83260.13;5048698;28;20021;-70
2023/05/26 06:40:16;;;;;;;24.63;4.28;;;;;;;-146.27;75.43;83238.03;5042182;28;20534;-71
2023/05/26 06:42:41;;;;;;;23.25;4.05;;;;;;;-146.27;73.97;83276.19;5037829;28;20461;-69
2023/05/26 06:45:07;;;;;;;27.25;4.03;;;;;;;-146.27;74.75;83236.00;5045540;28;20021;-70
2023/05/26 06:47:32;;;;;;;28.63;4.30;;;;;;;-146.27;73.75;83129.53;5042195;28;20120;-69
2023/05/26 06:49:58;;;;;;;16.70;3.97;;;;;;;-146.27;74.44;83240.03;5050612;28;20481;-71
2023/05/26 06:52:23;;;;;;;19.20;3.70;;;;;;;-146.27;73.85;83199.84;5061987;28;20119;-67
2023/05/26 06:54:48;;;;;;;21.27;3.95;;;;;;;-146.27;74.78;83181.75;5052446;28;20056;-71
2023/05/26 06:57:14;;;;;;;24.85;4.10;;;;;;;-146.27;73.58;83179.75;5051716;28;20071;-71
2023/05/26 06:59:41;;;;;;;23.35;3.90;;;;;;;-146.27;74.02;83171.72;5057988;28;20387;-72
2023/05/26 07:02:06;;;;;;;24.85;4.00;;;;;;;-146.27;73.26;83175.72;5035257;28;20029;-71
2023/05/26 07:04:32;;;;;;;23.83;3.67;;;;;;;-146.27;72.23;83149.63;5062695;28;20122;-71
2023/05/26 07:06:57;;;;;;;24.52;4.18;;;;;;;-146.27;73.41;83175.72;5041187;28;20017;-71
2023/05/26 07:09:22;;;;;;;24.77;4.32;;;;;;;-146.27;73.67;83175.72;5039297;28;20025;-71
2023/05/26 07:11:48;;;;;;;22.92;3.95;;;;;;;-146.27;73.19;83131.53;5045481;28;20060;-72
2023/05/26 07:14:13;;;;;;;23.33;3.40;;;;;;;-146.27;72.19;83149.63;5047144;28;20036;-71
2023/05/26 07:16:38;;;;;;;17.33;3.22;;;;;;;-146.27;71.95;83137.56;5038377;28;20121;-71
2023/05/26 07:19:04;;;;;;;25.80;4.13;;;;;;;-146.27;71.20;83099.38;5035629;28;20061;-72
2023/05/26 07:21:31;;;;;;;27.38;4.20;;;;;;;-146.27;70.40;83057.19;5044838;28;20020;-71
2023/05/26 07:23:56;;;;;;;23.85;4.05;;;;;;;-146.27;69.04;83079.28;5066380;28;20410;-71
2023/05/26 07:26:22;;;;;;;34.72;5.40;;;;;;;-146.27;69.19;83043.13;5047609;28;20123;-71
2023/05/26 07:28:49;;;;;;;19.55;3.90;;;;;;;-146.27;69.71;83111.44;5047914;28;20028;-71
2023/05/26 07:31:14;;;;;;;23.27;4.72;;;;;;;-146.27;70.46;83055.19;5039591;28;20035;-73
2023/05/26 07:33:39;;;;;;;26.50;3.88;;;;;;;-146.27;72.30;83027.06;5048339;28;20496;-72
2023/05/26 07:36:05;;;;;;;22.52;3.28;;;;;;;-146.27;71.16;83023.03;5052666;28;20491;-73
2023/05/26 07:38:30;;;;;;;25.05;5.80;;;;;;;-146.27;67.28;83067.25;5047337;28;20025;-73
2023/05/26 07:40:56;;;;;;;20.45;3.95;;;;;;;-146.27;66.42;82988.88;5034096;28;20036;-73
2023/05/26 07:43:21;;;;;;;23.73;4.35;;;;;;;-146.27;67.73;82994.91;5039619;28;20116;-73
2023/05/26 07:45:46;;;;;;;14.80;3.08;;;;;;;-146.27;66.63;82970.81;5045045;28;20048;-72
2023/05/26 07:48:13;;;;;;;22.33;4.18;;;;;;;-146.27;65.90;82926.59;5035158;28;20017;-71
2023/05/26 07:50:39;;;;;;;24.42;3.95;;;;;;;-146.27;65.15;82932.63;5037575;28;20457;-73
2023/05/26 07:53:04;;;;;;;18.25;4.28;;;;;;;-146.27;64.86;82856.28;5042616;28;20033;-72
2023/05/26 07:55:30;;;;;;;19.77;3.90;;;;;;;-146.27;62.60;82882.41;5034121;28;20036;-72
2023/05/26 07:57:55;;;;;;;19.25;4.85;;;;;;;-146.27;62.37;82842.22;5041848;28;20055;-72
2023/05/26 08:00:20;;;;;;;18.75;3.67;;;;;;;-146.27;61.62;82876.38;5043189;28;21019;-72
2023/05/26 08:02:46;;;;;;;22.27;3.60;;;;;;;-146.27;62.81;82810.06;5051204;28;20028;-73
2023/05/26 08:05:11;;;;;;;26.58;4.00;;;;;;;-146.27;63.12;82838.19;5051272;28;20025;-73
2023/05/26 08:07:36;;;;;;;26.25;4.28;;;;;;;-146.27;62.82;82830.16;5050146;28;20055;-74
2023/05/26 08:10:03;;;;;;;17.25;3.97;;;;;;;-146.27;59.93;82802.03;5048776;28;20056;-72
2023/05/26 08:12:28;;;;;;;22.85;3.42;;;;;;;-146.27;61.20;82792.00;5048473;28;20617;-73
2023/05/26 08:14:54;;;;;;;25.48;3.70;;;;;;;-146.27;62.54;82753.81;5038499;28;20056;-73
2023/05/26 08:17:20;;;;;;;19.15;3.17;;;;;;;-146.27;62.49;82761.84;5034306;28;20053;-73
2023/05/26 08:19:46;;;;;;;24.23;3.92;;;;;;;-146.27;60.95;82731.72;5043169;28;20045;-73
2023/05/26 08:22:11;;;;;;;25.98;4.45;;;;;;;-146.27;60.16;82753.81;5040040;28;20031;-73
2023/05/26 08:24:36;;;;;;;25.75;3.67;;;;;;;-146.27;61.95;82769.91;5070872;28;20024;-74
2023/05/26 08:27:02;;;;;;;25.42;4.30;;;;;;;-146.27;62.52;82691.53;5048136;28;20087;-73
2023/05/26 08:29:27;;;;;;;18.13;3.78;;;;;;;-146.27;61.61;82665.44;5048118;28;20021;-73
2023/05/26 08:31:53;;;;;;;14.35;3.47;;;;;;;-146.27;56.98;82697.56;5041995;28;20033;-72
2023/05/26 08:34:18;;;;;;;12.07;3.78;;;;;;;-146.27;56.77;82665.44;5049712;28;20028;-71
2023/05/26 08:36:44;;;;;;;16.33;4.07;;;;;;;-146.27;56.27;82685.50;5038311;28;20469;-72
2023/05/26 08:39:09;;;;;;;14.50;3.13;;;;;;;-146.27;56.04;82619.22;5050297;28;20111;-72
2023/05/26 08:41:55;;;;;;;20.00;3.55;;;;;;;-146.27;55.52;82609.19;5039679;28;20030;-72
2023/05/26 08:44:21;;;;;;;14.35;3.20;;;;;;;-146.27;55.54;82659.41;5037818;28;20029;-71
2023/05/26 08:46:54;;;;;;;21.23;3.60;;;;;;;-146.27;55.40;82625.25;5041005;28;20588;-72
2023/05/26 08:49:20;;;;;;;;;;;;;;;-146.27;55.94;82560.97;5051062;28;20029;-72
2023/05/26 08:51:55;;;;;;;17.00;5.28;;;;;;;-146.27;55.79;82556.94;5048735;28;19920;-72
2023/05/26 08:54:20;;;;;;;16.75;3.28;;;;;;;-146.27;53.21;82573.00;5050577;28;20033;-70
2023/05/26 08:56:48;;;;;;;24.88;4.60;;;;;;;-146.27;54.07;82516.78;5039011;28;20037;-73
2023/05/26 08:59:15;;;;;;;21.25;3.50;;;;;;;-146.27;54.22;82579.03;5043986;28;20017;-74
2023/05/26 09:01:41;;;;;;;14.60;3.50;;;;;;;-146.27;53.36;82488.66;5046393;28;20044;-73
2023/05/26 09:04:06;;;;;;;22.27;3.28;;;;;;;-146.27;52.67;82456.50;5062844;28;20022;-72
2023/05/26 09:06:34;;;;;;;17.58;4.00;;;;;;;-146.27;52.53;82456.50;5045233;28;20434;-72
2023/05/26 09:08:59;;;;;;;16.52;3.70;;;;;;;-146.27;51.87;82484.63;5032990;28;20036;-71
2023/05/26 09:11:27;;;;;;;13.65;2.95;;;;;;;-146.27;53.15;82442.44;5039890;28;20064;-71
2023/05/26 09:13:56;;;;;;;16.98;3.30;;;;;;;-146.27;53.84;82444.44;5046886;28;20490;-72
2023/05/26 09:16:26;;;;;;;25.50;3.85;;;;;;;-146.27;53.01;82396.25;5042410;28;20056;-72
2023/05/26 09:18:55;;;;;;;16.85;4.43;;;;;;;-146.27;53.29;82372.13;5041152;28;20449;-73
2023/05/26 09:21:21;;;;;;;24.55;3.78;;;;;;;-146.27;51.57;82394.22;5044504;28;20025;-73
2023/05/26 09:23:55;;;;;;;19.55;3.40;;;;;;;-146.27;49.85;82368.13;5034412;28;20449;-74
2023/05/26 09:26:26;;;;;;;;;;;;;;;-146.27;52.30;82313.88;5038641;28;20070;-73
2023/05/26 09:28:52;;;;;;;14.77;3.22;;;;;;;-146.27;51.87;82323.91;5047000;28;19923;-73
2023/05/26 09:31:17;;;;;;;17.02;3.85;;;;;;;-146.27;51.41;82275.72;5050383;28;20401;-69
2023/05/26 09:33:46;;;;;;;24.70;3.33;;;;;;;-146.27;51.92;82247.59;5039495;28;20033;-70
2023/05/26 09:36:11;;;;;;;15.40;3.20;;;;;;;-146.27;47.27;82273.72;5047132;28;20043;-71
2023/05/26 09:38:37;;;;;;;19.48;2.72;;;;;;;-146.27;49.00;82235.53;5035967;28;20385;-71
2023/05/26 09:41:02;;;;;;;16.42;2.90;;;;;;;-146.27;44.57;82219.47;5050198;28;20467;-71
2023/05/26 09:43:32;;;;;;;15.13;3.42;;;;;;;-146.27;45.69;82249.59;5050085;28;20021;-71
2023/05/26 09:45:57;;;;;;;19.88;3.20;;;;;;;-146.27;45.72;82209.44;5050219;28;20037;-70
2023/05/26 09:48:23;;;;;;;10.63;3.20;;;;;;;-146.27;45.72;82195.38;5048559;28;20060;-71
2023/05/26 09:50:51;;;;;;;12.45;3.17;;;;;;;-146.27;45.86;82137.13;5055963;28;20066;-72
2023/05/26 09:53:16;;;;;;;15.18;2.95;;;;;;;-146.27;45.70;82181.31;5044812;28;20025;-72
2023/05/26 09:55:43;;;;;;;23.40;4.47;;;;;;;-146.27;45.92;82127.06;5049640;28;20408;-72
2023/05/26 09:58:10;;;;;;;20.65;3.67;;;;;;;-146.27;44.03;82187.31;5049117;28;20027;-71
2023/05/26 10:00:39;;;;;;;16.63;3.60;;;;;;;-146.27;45.85;82106.97;5048391;28;21481;-69
2023/05/26 10:03:07;;;;;;;17.08;4.47;;;;;;;-146.27;46.61;82074.84;5044740;28;20037;-72
2023/05/26 10:05:34;;;;;;;17.65;3.70;;;;;;;-146.27;47.15;82042.69;5049098;28;20037;-72
2023/05/26 10:08:00;;;;;;;15.57;3.50;;;;;;;-146.27;44.26;82024.63;5053014;28;20033;-70
2023/05/26 10:10:29;;;;;;;13.10;3.35;;;;;;;-146.27;44.09;82000.53;5051583;28;20120;-71
2023/05/26 10:12:54;;;;;;;16.20;3.38;;;;;;;-146.27;44.41;81962.34;5053115;28;20128;-72
2023/05/26 10:15:21;;;;;;;13.52;3.58;;;;;;;-146.27;43.53;81966.38;5052970;28;20103;-71
2023/05/26 10:17:46;;;;;;;12.45;2.88;;;;;;;-146.27;43.58;81918.16;5041833;28;20045;-70
2023/05/26 10:20:13;;;;;;;12.23;2.95;;;;;;;-146.27;43.62;81892.06;5033032;28;20061;-72
2023/05/26 10:23:00;;;;;;;19.58;3.47;;;;;;;-146.27;46.23;81884.03;5032806;28;20085;-71
2023/05/26 10:25:35;;;;;;;19.92;3.63;;;;;;;-146.27;43.22;81880.00;5032943;28;20021;-71
2023/05/26 10:28:22;;;;;;;13.88;2.75;;;;;;;-146.27;42.86;81827.78;5032818;28;20029;-71
2023/05/26 10:30:47;;;;;;;21.67;3.40;;;;;;;-146.27;42.61;81837.81;5033796;28;20026;-71
2023/05/26 10:33:14;;;;;;;15.77;3.25;;;;;;;-146.27;40.73;81823.78;5044469;28;20052;-71
2023/05/26 10:35:56;;;;;;;18.88;3.33;;;;;;;-146.27;43.99;81825.78;5053429;28;20523;-71
2023/05/26 10:38:36;;;;;;;19.15;3.70;;;;;;;-146.27;43.01;81853.91;5058111;28;20021;-70
2023/05/26 10:41:02;;;;;;;18.23;4.00;;;;;;;-146.27;43.35;81761.50;5052609;28;20090;-71
2023/05/26 10:43:28;;;;;;;12.77;3.28;;;;;;;-146.27;43.07;81777.56;5051780;28;20021;-71
2023/05/26 10:45:54;;;;;;;18.20;4.40;;;;;;;-146.27;42.71;81775.56;5053617;28;20028;-70
2023/05/26 10:48:21;;;;;;;24.38;3.45;;;;;;;-146.27;43.07;81667.09;5036698;28;20039;-71
2023/05/26 10:50:58;;;;;;;24.55;3.72;;;;;;;-146.27;43.02;81709.28;5049492;28;20371;-71
2023/05/26 10:53:44;;;;;;;18.45;3.72;;;;;;;-146.27;42.69;81719.31;5033231;28;20381;-71
2023/05/26 10:56:13;;;;;;;17.35;3.58;;;;;;;-146.27;42.35;81701.25;5071290;28;20070;-71
2023/05/26 10:58:41;;;;;;;17.33;4.15;;;;;;;-146.27;43.08;81653.06;5055989;28;20380;-70
2023/05/26 11:01:12;;;;;;;17.08;3.78;;;;;;;-146.27;43.74;81600.84;5047958;28;20032;-70
2023/05/26 11:03:43;;;;;;;19.13;3.92;;;;;;;-146.27;42.13;81600.84;5052767;28;20021;-70
2023/05/26 11:06:12;;;;;;;11.65;3.63;;;;;;;-146.27;39.63;81560.66;5051919;28;20435;-71
2023/05/26 11:08:46;;;;;;;17.20;3.33;;;;;;;-146.27;40.45;81588.78;5068593;28;20048;-72